createdAt,value
2019-05-07T00:01:52.621Z,94.90
2019-05-07T00:04:22.465Z,94.90
2019-05-07T00:06:55.439Z,94.90
2019-05-07T00:09:24.795Z,95.00
2019-05-07T00:11:54.160Z,95.00
2019-05-07T00:14:24.131Z,95.00
2019-05-07T00:16:53.668Z,94.90
2019-05-07T00:19:26.091Z,94.80
2019-05-07T00:21:55.389Z,94.90
2019-05-07T00:24:24.691Z,94.90
2019-05-07T00:26:54.551Z,94.90
2019-05-07T00:29:24.208Z,94.80
2019-05-07T00:31:53.511Z,94.90
2019-05-07T00:34:24.459Z,94.90
2019-05-07T00:37:02.387Z,94.80
2019-05-07T00:39:45.173Z,94.80
2019-05-07T00:42:18.777Z,94.70
2019-05-07T00:45:13.065Z,94.70
2019-05-07T00:47:29.661Z,94.70
2019-05-07T00:50:00.597Z,94.80
2019-05-07T00:52:33.619Z,94.70
2019-05-07T00:55:07.156Z,94.60
2019-05-07T00:57:36.503Z,94.60
2019-05-07T01:00:08.879Z,94.60
2019-05-07T01:02:38.311Z,94.60
2019-05-07T01:05:09.307Z,94.60
2019-05-07T01:07:38.595Z,94.60
2019-05-07T01:10:08.735Z,94.50
2019-05-07T01:12:38.015Z,94.50
2019-05-07T01:15:07.630Z,94.60
2019-05-07T01:17:36.999Z,94.50
2019-05-07T01:20:06.360Z,94.60
2019-05-07T01:22:35.661Z,94.50
2019-05-07T01:25:05.857Z,94.60
2019-05-07T01:27:35.239Z,94.50
2019-05-07T01:30:05.484Z,94.60
2019-05-07T01:32:42.597Z,94.50
2019-05-07T01:35:19.475Z,94.60
2019-05-07T01:37:49.143Z,94.50
2019-05-07T01:40:18.467Z,94.60
2019-05-07T01:42:47.841Z,94.60
2019-05-07T01:45:18.827Z,94.60
2019-05-07T01:47:48.183Z,94.60
2019-05-07T01:50:17.555Z,94.50
2019-05-07T01:52:46.919Z,94.50
2019-05-07T01:55:16.215Z,94.60
2019-05-07T01:57:45.580Z,94.50
2019-05-07T02:00:15.110Z,94.60
2019-05-07T02:02:46.106Z,94.60
2019-05-07T02:05:18.751Z,94.60
2019-05-07T02:07:51.803Z,94.60
2019-05-07T02:10:25.077Z,94.60
2019-05-07T02:12:54.371Z,94.70
2019-05-07T02:15:26.727Z,94.60
2019-05-07T02:17:56.047Z,94.70
2019-05-07T02:20:25.334Z,94.70
2019-05-07T02:22:54.626Z,94.70
2019-05-07T02:25:23.939Z,94.80
2019-05-07T02:27:53.310Z,94.80
2019-05-07T02:30:23.642Z,94.80
2019-05-07T02:32:54.164Z,94.70
2019-05-07T02:35:23.837Z,94.70
2019-05-07T02:37:56.758Z,94.80
2019-05-07T02:40:34.104Z,94.70
2019-05-07T02:43:03.669Z,94.60
2019-05-07T02:45:37.173Z,94.70
2019-05-07T02:48:06.446Z,94.80
2019-05-07T02:50:43.499Z,94.70
2019-05-07T02:53:27.794Z,94.80
2019-05-07T02:55:58.681Z,94.70
2019-05-07T02:58:33.046Z,94.70
2019-05-07T03:01:04.995Z,94.70
2019-05-07T03:03:34.621Z,94.70
2019-05-07T03:06:04.080Z,94.70
2019-05-07T03:08:36.611Z,94.80
2019-05-07T03:11:06.057Z,94.80
2019-05-07T03:13:35.480Z,94.80
2019-05-07T03:16:07.970Z,94.70
2019-05-07T03:18:37.234Z,94.70
2019-05-07T03:21:12.770Z,94.60
2019-05-07T03:23:53.818Z,94.70
2019-05-07T03:26:25.027Z,94.80
2019-05-07T03:28:56.056Z,94.80
2019-05-07T03:31:46.615Z,94.90
2019-05-07T03:34:16.759Z,94.90
2019-05-07T03:36:48.943Z,95.00
2019-05-07T03:39:18.608Z,95.00
2019-05-07T03:41:48.035Z,95.00
2019-05-07T03:44:18.977Z,95.00
2019-05-07T03:46:58.171Z,95.10
2019-05-07T03:49:36.010Z,95.20
2019-05-07T03:52:05.331Z,94.80
2019-05-07T03:54:35.365Z,95.10
2019-05-07T03:57:10.672Z,95.10
2019-05-07T03:59:36.559Z,95.00
2019-05-07T04:02:08.727Z,95.00
2019-05-07T04:04:38.005Z,95.00
2019-05-07T04:07:09.076Z,95.00
2019-05-07T04:09:38.534Z,95.00
2019-05-07T04:12:13.130Z,95.00
2019-05-07T04:14:43.354Z,95.00
2019-05-07T04:17:21.140Z,95.10
2019-05-07T04:19:44.426Z,95.10
2019-05-07T04:22:15.891Z,95.20
2019-05-07T04:24:53.043Z,95.10
2019-05-07T04:27:39.002Z,95.20
2019-05-07T04:30:12.653Z,95.10
2019-05-07T04:32:43.349Z,95.20
2019-05-07T04:35:24.402Z,95.30
2019-05-07T04:37:53.868Z,95.30
2019-05-07T04:40:24.019Z,95.30
2019-05-07T04:42:54.024Z,95.40
2019-05-07T04:45:26.440Z,95.40
2019-05-07T04:47:55.814Z,95.50
2019-05-07T04:50:42.042Z,95.50
2019-05-07T04:52:57.838Z,95.60
2019-05-07T04:55:27.158Z,95.60
2019-05-07T04:57:56.510Z,95.70
2019-05-07T05:00:25.829Z,95.70
2019-05-07T05:03:05.836Z,95.70
2019-05-07T05:05:36.775Z,95.80
2019-05-07T05:08:06.140Z,95.80
2019-05-07T05:10:35.607Z,95.90
2019-05-07T05:13:04.894Z,96.00
2019-05-07T05:15:34.266Z,96.00
2019-05-07T05:18:04.048Z,96.20
2019-05-07T05:20:51.885Z,96.20
2019-05-07T05:23:22.942Z,96.30
2019-05-07T05:25:52.352Z,96.40
2019-05-07T05:28:21.988Z,96.50
2019-05-07T05:30:58.994Z,96.60
2019-05-07T05:33:28.292Z,96.70
2019-05-07T05:36:00.361Z,96.80
2019-05-07T05:38:29.638Z,96.80
2019-05-07T05:40:58.952Z,96.90
2019-05-07T05:43:45.894Z,96.90
2019-05-07T05:46:19.500Z,96.90
2019-05-07T05:48:48.786Z,97.00
2019-05-07T05:51:19.814Z,97.10
2019-05-07T05:54:05.506Z,97.10
2019-05-07T05:56:36.576Z,97.10
2019-05-07T05:59:12.095Z,97.20
2019-05-07T06:01:52.078Z,97.20
2019-05-07T06:04:28.617Z,97.30
2019-05-07T06:07:11.282Z,97.40
2019-05-07T06:09:38.198Z,97.50
2019-05-07T06:12:12.606Z,97.50
2019-05-07T06:14:43.797Z,97.50
2019-05-07T06:17:17.440Z,97.50
2019-05-07T06:20:04.682Z,97.60
2019-05-07T06:22:44.732Z,97.60
2019-05-07T06:25:24.583Z,97.60
2019-05-07T06:27:54.594Z,97.50
2019-05-07T06:30:23.978Z,97.50
2019-05-07T06:32:53.430Z,97.60
2019-05-07T06:35:23.102Z,97.60
2019-05-07T06:37:52.487Z,97.60
2019-05-07T06:40:29.544Z,97.70
2019-05-07T06:43:03.179Z,97.70
2019-05-07T06:45:42.088Z,97.70
2019-05-07T06:48:12.658Z,97.70
2019-05-07T06:50:43.555Z,97.80
2019-05-07T06:53:15.847Z,97.50
2019-05-07T06:55:45.144Z,97.50
2019-05-07T06:58:14.455Z,97.40
2019-05-07T07:00:45.460Z,97.50
2019-05-07T07:03:22.353Z,97.50
2019-05-07T07:05:53.423Z,97.40
2019-05-07T07:08:24.504Z,97.30
2019-05-07T07:11:12.924Z,97.30
2019-05-07T07:13:44.459Z,97.40
2019-05-07T07:16:13.864Z,97.20
2019-05-07T07:18:51.992Z,97.20
2019-05-07T07:21:14.362Z,97.10
2019-05-07T07:23:47.710Z,97.20
2019-05-07T07:26:17.095Z,97.10
2019-05-07T07:28:46.496Z,97.20
2019-05-07T07:31:17.555Z,97.00
2019-05-07T07:33:48.502Z,97.20
2019-05-07T07:36:18.743Z,97.20
2019-05-07T07:38:48.054Z,97.20
2019-05-07T07:41:24.687Z,97.10
2019-05-07T07:43:53.975Z,97.00
2019-05-07T07:46:23.286Z,97.00
2019-05-07T07:49:06.797Z,96.90
2019-05-07T07:51:37.900Z,96.80
2019-05-07T07:53:54.709Z,96.60
2019-05-07T07:56:47.858Z,96.40
2019-05-07T07:59:06.890Z,96.20
2019-05-07T08:01:38.054Z,96.00
2019-05-07T08:04:09.049Z,96.40
2019-05-07T08:06:39.312Z,96.40
2019-05-07T08:09:12.858Z,96.30
2019-05-07T08:11:42.490Z,96.00
2019-05-07T08:14:12.674Z,96.40
2019-05-07T08:16:43.080Z,96.00
2019-05-07T08:19:21.509Z,95.90
2019-05-07T08:21:43.715Z,95.80
2019-05-07T08:24:13.008Z,96.00
2019-05-07T08:26:42.974Z,96.10
2019-05-07T08:29:12.506Z,96.30
2019-05-07T08:32:02.433Z,96.20
2019-05-07T08:34:36.310Z,95.60
2019-05-07T08:37:06.152Z,95.50
2019-05-07T08:39:35.607Z,95.50
2019-05-07T08:42:06.730Z,94.70
2019-05-07T08:44:46.258Z,94.80
2019-05-07T08:47:33.450Z,94.90
2019-05-07T08:50:03.821Z,94.20
2019-05-07T08:52:33.315Z,94.50
2019-05-07T08:55:02.628Z,94.40
2019-05-07T08:57:32.096Z,94.10
2019-05-07T09:00:04.468Z,94.40
2019-05-07T09:02:32.710Z,93.70
2019-05-07T09:05:03.012Z,93.70
2019-05-07T09:07:32.508Z,94.10
2019-05-07T09:10:02.544Z,93.80
2019-05-07T09:12:33.149Z,94.10
2019-05-07T09:15:02.606Z,94.00
2019-05-07T09:17:32.420Z,94.10
2019-05-07T09:20:02.648Z,94.00
2019-05-07T09:22:32.466Z,93.60
2019-05-07T09:25:03.104Z,92.40
2019-05-07T09:27:34.411Z,92.30
2019-05-07T09:30:19.456Z,92.90
2019-05-07T09:32:53.403Z,93.20
2019-05-07T09:35:32.050Z,92.90
2019-05-07T09:38:03.170Z,92.80
2019-05-07T09:40:32.683Z,93.20
2019-05-07T09:43:02.560Z,93.30
2019-05-07T09:45:32.849Z,93.00
2019-05-07T09:48:02.994Z,93.30
2019-05-07T09:50:32.687Z,93.70
2019-05-07T09:53:02.423Z,93.30
2019-05-07T09:55:32.609Z,93.60
2019-05-07T09:58:02.214Z,93.80
2019-05-07T10:00:32.144Z,93.80
2019-05-07T10:03:04.823Z,93.80
2019-05-07T10:05:34.899Z,93.40
2019-05-07T10:08:04.812Z,93.00
2019-05-07T10:10:34.249Z,93.40
2019-05-07T10:13:06.710Z,93.10
2019-05-07T10:15:37.855Z,91.70
2019-05-07T10:18:08.785Z,91.90
2019-05-07T10:20:42.105Z,91.70
2019-05-07T10:23:13.271Z,91.90
2019-05-07T10:25:42.664Z,91.30
2019-05-07T10:28:12.513Z,91.00
2019-05-07T10:30:42.830Z,90.20
2019-05-07T10:33:12.465Z,90.40
2019-05-07T10:35:43.473Z,91.20
2019-05-07T10:38:13.085Z,91.30
2019-05-07T10:40:42.909Z,91.40
2019-05-07T10:43:13.281Z,91.10
2019-05-07T10:45:45.869Z,91.20
2019-05-07T10:48:22.215Z,90.90
2019-05-07T10:51:02.550Z,91.30
2019-05-07T10:53:32.130Z,91.80
2019-05-07T10:56:02.720Z,92.20
2019-05-07T10:58:32.244Z,90.70
2019-05-07T11:01:02.918Z,90.70
2019-05-07T11:03:32.636Z,91.40
2019-05-07T11:06:02.035Z,92.50
2019-05-07T11:08:32.911Z,91.50
2019-05-07T11:11:03.052Z,91.40
2019-05-07T11:13:33.645Z,91.70
2019-05-07T11:16:04.581Z,91.00
2019-05-07T11:18:38.558Z,91.20
2019-05-07T11:21:07.987Z,91.30
2019-05-07T11:23:37.279Z,90.90
2019-05-07T11:26:06.635Z,90.50
2019-05-07T11:28:36.061Z,90.00
2019-05-07T11:31:05.463Z,87.20
2019-05-07T11:33:34.787Z,90.20
2019-05-07T11:36:06.962Z,90.20
2019-05-07T11:38:36.259Z,90.90
2019-05-07T11:41:05.599Z,90.30
2019-05-07T11:43:48.383Z,89.80
2019-05-07T11:46:19.335Z,90.20
2019-05-07T11:48:55.975Z,90.90
2019-05-07T11:51:38.895Z,90.50
2019-05-07T11:54:12.288Z,91.40
2019-05-07T11:56:42.374Z,90.50
2019-05-07T11:59:13.319Z,90.80
2019-05-07T12:01:47.643Z,90.80
2019-05-07T12:04:15.792Z,90.20
2019-05-07T12:06:45.196Z,90.70
2019-05-07T12:09:14.503Z,90.30
2019-05-07T12:11:43.891Z,88.50
2019-05-07T12:14:13.192Z,88.90
2019-05-07T12:16:42.829Z,88.10
2019-05-07T12:19:13.724Z,88.70
2019-05-07T12:21:43.317Z,88.00
2019-05-07T12:24:16.014Z,90.00
2019-05-07T12:26:44.492Z,89.90
2019-05-07T12:29:14.110Z,89.90
2019-05-07T12:32:02.626Z,88.40
2019-05-07T12:34:39.356Z,88.60
2019-05-07T12:37:12.253Z,87.70
2019-05-07T12:39:44.584Z,86.90
2019-05-07T12:42:15.135Z,84.90
2019-05-07T12:44:45.520Z,84.50
2019-05-07T12:47:14.925Z,83.90
2019-05-07T12:49:44.795Z,82.40
2019-05-07T12:52:22.775Z,83.90
2019-05-07T12:54:56.659Z,85.40
2019-05-07T12:57:29.080Z,82.80
2019-05-07T13:00:19.106Z,84.50
2019-05-07T13:02:52.040Z,84.90
2019-05-07T13:05:21.083Z,85.10
2019-05-07T13:07:52.014Z,85.30
2019-05-07T13:10:22.186Z,84.10
2019-05-07T13:12:52.662Z,85.40
2019-05-07T13:15:27.578Z,86.40
2019-05-07T13:17:53.742Z,86.10
2019-05-07T13:20:23.282Z,85.10
2019-05-07T13:22:54.424Z,85.30
2019-05-07T13:25:28.315Z,85.70
2019-05-07T13:27:54.854Z,83.60
2019-05-07T13:30:25.850Z,84.00
2019-05-07T13:32:56.568Z,83.80
2019-05-07T13:35:26.899Z,84.00
2019-05-07T13:38:03.634Z,85.70
2019-05-07T13:40:37.547Z,84.50
2019-05-07T13:43:25.532Z,84.40
2019-05-07T13:45:58.130Z,83.70
2019-05-07T13:48:27.798Z,84.10
2019-05-07T13:50:57.120Z,83.60
2019-05-07T13:53:26.720Z,84.60
2019-05-07T13:55:56.848Z,83.40
2019-05-07T13:58:26.939Z,85.10
2019-05-07T14:01:02.035Z,86.70
2019-05-07T14:03:33.047Z,85.10
2019-05-07T14:06:04.598Z,83.30
2019-05-07T14:08:35.592Z,83.10
2019-05-07T14:11:06.957Z,81.50
2019-05-07T14:13:37.334Z,81.10
2019-05-07T14:16:07.822Z,83.70
2019-05-07T14:18:38.975Z,82.70
2019-05-07T14:21:08.757Z,80.80
2019-05-07T14:23:38.150Z,81.70
2019-05-07T14:26:08.346Z,82.50
2019-05-07T14:28:37.744Z,82.00
2019-05-07T14:31:07.106Z,81.50
2019-05-07T14:33:43.914Z,82.40
2019-05-07T14:36:23.410Z,82.70
2019-05-07T14:38:53.844Z,82.90
2019-05-07T14:41:25.689Z,82.50
2019-05-07T14:43:55.910Z,79.20
2019-05-07T14:46:25.369Z,80.80
2019-05-07T14:48:54.736Z,80.50
2019-05-07T14:51:25.650Z,81.40
2019-05-07T14:53:55.023Z,80.30
2019-05-07T14:56:25.854Z,79.20
2019-05-07T14:58:57.613Z,78.80
2019-05-07T15:01:27.072Z,80.70
2019-05-07T15:03:58.142Z,80.50
2019-05-07T15:06:27.583Z,79.00
2019-05-07T15:08:56.947Z,79.40
2019-05-07T15:11:26.374Z,81.80
2019-05-07T15:13:57.382Z,82.40
2019-05-07T15:16:31.983Z,80.10
2019-05-07T15:19:02.202Z,79.70
2019-05-07T15:21:32.384Z,80.20
2019-05-07T15:24:02.670Z,77.70
2019-05-07T15:26:32.638Z,79.50
2019-05-07T15:29:12.097Z,78.60
2019-05-07T15:32:03.211Z,78.80
2019-05-07T15:34:32.821Z,78.10
2019-05-07T15:37:02.306Z,78.90
2019-05-07T15:39:32.813Z,79.70
2019-05-07T15:42:02.377Z,77.70
2019-05-07T15:44:32.004Z,77.40
2019-05-07T15:47:03.092Z,78.50
2019-05-07T15:49:32.406Z,78.80
2019-05-07T15:52:03.373Z,77.60
2019-05-07T15:54:32.794Z,78.60
2019-05-07T15:57:06.246Z,79.20
2019-05-07T15:59:35.548Z,78.00
2019-05-07T16:02:08.998Z,76.70
2019-05-07T16:04:38.374Z,77.00
2019-05-07T16:07:09.316Z,76.10
2019-05-07T16:09:44.855Z,77.40
2019-05-07T16:12:15.971Z,77.40
2019-05-07T16:14:45.420Z,79.00
2019-05-07T16:17:16.414Z,78.60
2019-05-07T16:19:45.716Z,78.60
2019-05-07T16:22:16.796Z,78.50
2019-05-07T16:24:46.234Z,78.20
2019-05-07T16:27:15.516Z,78.20
2019-05-07T16:29:44.891Z,78.60
2019-05-07T16:32:14.181Z,77.70
2019-05-07T16:34:43.614Z,78.40
2019-05-07T16:37:12.918Z,79.00
2019-05-07T16:39:42.321Z,78.20
2019-05-07T16:42:11.725Z,73.50
2019-05-07T16:44:41.763Z,76.40
2019-05-07T16:47:12.217Z,77.40
2019-05-07T16:49:42.517Z,77.40
2019-05-07T16:52:12.129Z,76.90
2019-05-07T16:54:44.865Z,77.80
2019-05-07T16:57:24.016Z,76.50
2019-05-07T16:59:53.456Z,77.80
2019-05-07T17:02:24.734Z,76.30
2019-05-07T17:05:08.148Z,78.10
2019-05-07T17:07:42.675Z,78.10
2019-05-07T17:10:13.282Z,79.20
2019-05-07T17:12:46.350Z,78.00
2019-05-07T17:15:15.862Z,78.80
2019-05-07T17:17:45.218Z,77.70
2019-05-07T17:20:14.942Z,77.20
2019-05-07T17:22:44.239Z,76.40
2019-05-07T17:25:33.326Z,76.70
2019-05-07T17:28:05.538Z,76.40
2019-05-07T17:30:37.535Z,75.70
2019-05-07T17:33:07.880Z,76.00
2019-05-07T17:35:37.150Z,77.00
2019-05-07T17:38:09.830Z,76.30
2019-05-07T17:40:37.432Z,73.30
2019-05-07T17:43:06.738Z,76.00
2019-05-07T17:45:36.030Z,75.20
2019-05-07T17:48:05.788Z,75.50
2019-05-07T17:50:48.826Z,76.40
2019-05-07T17:53:22.541Z,76.50
2019-05-07T17:55:52.899Z,75.10
2019-05-07T17:58:22.473Z,74.90
2019-05-07T18:00:53.478Z,75.70
2019-05-07T18:03:42.775Z,75.90
2019-05-07T18:06:12.616Z,75.60
2019-05-07T18:08:42.092Z,75.40
2019-05-07T18:11:20.780Z,75.80
2019-05-07T18:13:42.681Z,75.10
2019-05-07T18:16:19.505Z,75.90
2019-05-07T18:18:48.890Z,76.20
2019-05-07T18:21:22.047Z,76.10
2019-05-07T18:23:53.881Z,75.50
2019-05-07T18:26:30.286Z,75.20
2019-05-07T18:28:54.454Z,75.10
2019-05-07T18:31:25.423Z,75.50
2019-05-07T18:33:58.987Z,75.90
2019-05-07T18:36:28.407Z,75.90
2019-05-07T18:38:57.782Z,76.20
2019-05-07T18:41:27.261Z,76.20
2019-05-07T18:44:09.090Z,76.50
2019-05-07T18:46:27.775Z,76.40
2019-05-07T18:48:57.149Z,76.50
2019-05-07T18:51:26.520Z,76.50
2019-05-07T18:53:55.864Z,76.30
2019-05-07T18:56:25.176Z,76.30
2019-05-07T18:58:54.490Z,76.40
2019-05-07T19:01:25.485Z,76.90
2019-05-07T19:03:55.358Z,76.60
2019-05-07T19:06:24.726Z,76.60
2019-05-07T19:08:54.133Z,76.40
2019-05-07T19:11:23.557Z,76.40
2019-05-07T19:13:55.884Z,76.10
2019-05-07T19:16:24.139Z,76.40
2019-05-07T19:18:53.510Z,76.10
2019-05-07T19:21:22.967Z,76.30
2019-05-07T19:23:53.053Z,76.40
2019-05-07T19:26:22.484Z,76.10
2019-05-07T19:28:51.894Z,75.90
2019-05-07T19:31:21.987Z,75.90
2019-05-07T19:33:52.619Z,75.90
2019-05-07T19:36:22.397Z,76.10
2019-05-07T19:38:53.035Z,76.00
2019-05-07T19:41:25.229Z,76.50
2019-05-07T19:43:54.507Z,76.30
2019-05-07T19:46:23.831Z,76.40
2019-05-07T19:48:53.259Z,76.30
2019-05-07T19:51:22.643Z,76.80
2019-05-07T19:53:52.604Z,76.70
2019-05-07T19:56:23.669Z,76.50
2019-05-07T19:58:53.107Z,76.30
2019-05-07T20:01:24.058Z,76.60
2019-05-07T20:03:53.505Z,76.30
2019-05-07T20:06:23.522Z,76.20
2019-05-07T20:08:53.150Z,76.20
2019-05-07T20:11:37.515Z,76.70
2019-05-07T20:14:06.980Z,76.50
2019-05-07T20:16:36.337Z,76.50
2019-05-07T20:19:05.906Z,76.30
2019-05-07T20:21:35.361Z,76.30
2019-05-07T20:24:04.949Z,76.40
2019-05-07T20:26:34.349Z,76.30
2019-05-07T20:29:03.936Z,76.60
2019-05-07T20:31:33.844Z,76.50
2019-05-07T20:34:05.945Z,77.00
2019-05-07T20:36:35.304Z,77.00
2019-05-07T20:39:06.871Z,76.80
2019-05-07T20:41:36.455Z,76.70
2019-05-07T20:44:06.165Z,76.90
2019-05-07T20:46:35.575Z,76.80
2019-05-07T20:49:06.440Z,76.70
2019-05-07T20:51:36.618Z,76.60
2019-05-07T20:54:13.687Z,76.80
2019-05-07T20:56:46.603Z,77.00
2019-05-07T20:59:17.421Z,76.90
2019-05-07T21:01:47.791Z,77.30
2019-05-07T21:04:22.114Z,77.20
2019-05-07T21:06:52.522Z,77.40
2019-05-07T21:09:22.240Z,77.10
2019-05-07T21:11:51.634Z,77.20
2019-05-07T21:14:22.761Z,77.20
2019-05-07T21:16:53.919Z,77.20
2019-05-07T21:19:23.281Z,77.30
2019-05-07T21:21:52.655Z,77.40
2019-05-07T21:24:22.567Z,77.30
2019-05-07T21:26:53.078Z,77.30
2019-05-07T21:29:22.593Z,77.70
2019-05-07T21:31:52.443Z,77.50
2019-05-07T21:34:23.030Z,77.50
2019-05-07T21:36:52.539Z,77.60
2019-05-07T21:39:22.913Z,77.70
2019-05-07T21:41:52.633Z,77.80
2019-05-07T21:44:25.318Z,77.90
2019-05-07T21:46:55.675Z,77.70
2019-05-07T21:49:26.696Z,77.80
2019-05-07T21:51:56.087Z,77.80
2019-05-07T21:54:27.093Z,77.90
2019-05-07T21:57:03.471Z,77.90
2019-05-07T21:59:35.824Z,77.80
2019-05-07T22:02:07.751Z,77.80
2019-05-07T22:04:37.107Z,77.50
2019-05-07T22:07:06.471Z,77.60
2019-05-07T22:09:35.783Z,77.60
2019-05-07T22:12:05.243Z,77.60
2019-05-07T22:14:34.519Z,77.60
2019-05-07T22:17:03.969Z,77.80
2019-05-07T22:19:33.880Z,77.80
2019-05-07T22:22:03.934Z,77.80
2019-05-07T22:24:36.204Z,77.90
2019-05-07T22:27:05.571Z,77.80
2019-05-07T22:29:34.859Z,77.70
2019-05-07T22:32:05.810Z,77.80
2019-05-07T22:34:36.747Z,77.90
2019-05-07T22:37:08.076Z,78.00
2019-05-07T22:39:40.323Z,77.90
2019-05-07T22:42:11.727Z,78.10
2019-05-07T22:44:42.439Z,78.10
2019-05-07T22:47:22.524Z,78.10
2019-05-07T22:49:53.492Z,78.30
2019-05-07T22:52:25.498Z,78.20
2019-05-07T22:54:57.812Z,78.30
2019-05-07T22:57:28.751Z,78.40
2019-05-07T22:59:58.039Z,79.20
2019-05-07T23:02:27.419Z,78.50
2019-05-07T23:04:56.715Z,78.60
2019-05-07T23:07:26.023Z,78.60
2019-05-07T23:09:55.298Z,79.20
2019-05-07T23:12:24.744Z,78.50
2019-05-07T23:14:55.437Z,78.70
2019-05-07T23:17:24.907Z,78.70
2019-05-07T23:19:55.168Z,78.70
2019-05-07T23:22:24.616Z,78.70
2019-05-07T23:24:54.001Z,78.90
2019-05-07T23:27:23.374Z,78.80
2019-05-07T23:29:53.075Z,78.80
2019-05-07T23:32:22.530Z,78.90
2019-05-07T23:34:52.767Z,78.80
2019-05-07T23:37:22.727Z,79.00
2019-05-07T23:39:53.764Z,79.10
2019-05-07T23:42:24.687Z,79.00
2019-05-07T23:44:54.112Z,78.90
2019-05-07T23:47:23.430Z,79.00
2019-05-07T23:49:53.358Z,79.00
2019-05-07T23:52:22.685Z,79.00
2019-05-07T23:54:52.233Z,79.10
2019-05-07T23:57:23.074Z,79.10
2019-05-07T23:59:56.115Z,79.90
